createdAt,value
2022-09-03T00:00:10.089Z,22.17
2022-09-03T00:02:43.782Z,22.07
2022-09-03T00:05:16.826Z,22.25
2022-09-03T00:08:08.444Z,22.26
2022-09-03T00:11:03.218Z,22.26
2022-09-03T00:13:38.816Z,22.67
2022-09-03T00:16:11.638Z,22.63
2022-09-03T00:18:48.819Z,22.14
2022-09-03T00:21:22.355Z,22.33
2022-09-03T00:23:51.463Z,21.63
2022-09-03T00:26:27.579Z,22.03
2022-09-03T00:29:06.755Z,22.18
2022-09-03T00:31:42.895Z,22.37
2022-09-03T00:34:32.545Z,22.32
2022-09-03T00:36:59.442Z,22.68
2022-09-03T00:39:27.983Z,22.56
2022-09-03T00:42:07.981Z,22.14
2022-09-03T00:45:11.284Z,22.61
2022-09-03T00:48:03.852Z,22.76
2022-09-03T00:51:02.037Z,22.64
2022-09-03T00:53:40.929Z,21.99
2022-09-03T00:56:40.161Z,22.09
2022-09-03T00:59:45.082Z,22.37
2022-09-03T01:02:36.445Z,22.06
2022-09-03T01:05:19.229Z,21.75
2022-09-03T01:08:16.926Z,22.32
2022-09-03T01:10:53.580Z,21.93
2022-09-03T01:13:31.578Z,21.93
2022-09-03T01:16:05.800Z,21.98
2022-09-03T01:18:43.908Z,21.93
2022-09-03T01:21:24.119Z,22.14
2022-09-03T01:23:57.037Z,21.76
2022-09-03T01:26:31.106Z,21.97
2022-09-03T01:29:05.643Z,21.60
2022-09-03T01:31:50.989Z,21.17
2022-09-03T01:34:26.617Z,21.05
2022-09-03T01:36:59.424Z,21.63
2022-09-03T01:40:03.357Z,20.86
2022-09-03T01:43:03.643Z,21.50
2022-09-03T01:45:37.263Z,21.13
2022-09-03T01:48:15.058Z,21.83
2022-09-03T01:51:20.990Z,21.76
2022-09-03T01:54:18.151Z,21.70
2022-09-03T01:57:03.185Z,21.94
2022-09-03T01:59:35.151Z,22.10
2022-09-03T02:02:11.200Z,22.02
2022-09-03T02:04:38.317Z,22.28
2022-09-03T02:07:06.262Z,21.90
2022-09-03T02:09:33.176Z,22.33
2022-09-03T02:12:16.027Z,21.87
2022-09-03T02:14:43.833Z,21.65
2022-09-03T02:17:11.501Z,21.62
2022-09-03T02:19:39.362Z,21.71
2022-09-03T02:22:06.613Z,22.10
2022-09-03T02:24:33.900Z,22.04
2022-09-03T02:27:01.066Z,22.31
2022-09-03T02:29:27.875Z,22.20
2022-09-03T02:31:54.911Z,21.65
2022-09-03T02:34:21.741Z,21.81
2022-09-03T02:36:48.734Z,21.92
2022-09-03T02:39:16.809Z,22.07
2022-09-03T02:41:44.849Z,22.21
2022-09-03T02:44:33.445Z,22.15
2022-09-03T02:47:02.797Z,21.88
2022-09-03T02:49:30.275Z,22.00
2022-09-03T02:52:05.359Z,21.97
2022-09-03T02:54:35.922Z,22.19
2022-09-03T02:57:03.477Z,21.83
2022-09-03T02:59:30.455Z,21.92
2022-09-03T03:01:57.324Z,22.43
2022-09-03T03:04:29.521Z,22.12
2022-09-03T03:06:56.363Z,21.99
2022-09-03T03:09:23.239Z,22.06
2022-09-03T03:11:55.332Z,22.05
2022-09-03T03:14:22.881Z,21.58
2022-09-03T03:16:50.646Z,21.50
2022-09-03T03:19:17.790Z,21.81
2022-09-03T03:21:44.775Z,21.53
2022-09-03T03:24:11.942Z,21.54
2022-09-03T03:26:38.722Z,22.11
2022-09-03T03:29:05.613Z,21.87
2022-09-03T03:31:33.355Z,21.65
2022-09-03T03:34:02.337Z,21.28
2022-09-03T03:36:32.732Z,21.79
2022-09-03T03:39:01.026Z,21.97
2022-09-03T03:41:31.520Z,21.82
2022-09-03T03:44:01.508Z,22.42
2022-09-03T03:46:34.568Z,21.94
2022-09-03T03:49:01.886Z,22.42
2022-09-03T03:51:30.451Z,22.75
2022-09-03T03:54:01.001Z,21.99
2022-09-03T03:56:30.068Z,22.30
2022-09-03T03:58:59.516Z,22.13
2022-09-03T04:01:27.769Z,22.27
2022-09-03T04:03:56.273Z,22.19
2022-09-03T04:06:23.706Z,21.97
2022-09-03T04:08:50.831Z,22.30
2022-09-03T04:11:22.540Z,22.31
2022-09-03T04:13:50.502Z,22.19
2022-09-03T04:16:20.508Z,22.05
2022-09-03T04:18:49.302Z,22.38
2022-09-03T04:21:19.357Z,22.50
2022-09-03T04:23:48.092Z,22.80
2022-09-03T04:26:18.464Z,22.73
2022-09-03T04:28:45.665Z,21.98
2022-09-03T04:31:14.713Z,22.40
2022-09-03T04:33:42.453Z,22.14
2022-09-03T04:36:15.426Z,22.09
2022-09-03T04:38:44.611Z,22.62
2022-09-03T04:41:32.175Z,22.27
2022-09-03T04:43:59.999Z,21.75
2022-09-03T04:46:33.960Z,21.80
2022-09-03T04:49:01.910Z,22.19
2022-09-03T04:51:30.172Z,21.58
2022-09-03T04:54:00.998Z,21.77
2022-09-03T04:56:30.879Z,21.80
2022-09-03T04:59:01.460Z,22.00
2022-09-03T05:01:30.933Z,22.27
2022-09-03T05:03:58.993Z,21.72
2022-09-03T05:06:27.824Z,21.97
2022-09-03T05:08:55.812Z,21.90
2022-09-03T05:11:24.330Z,22.17
2022-09-03T05:13:54.208Z,21.67
2022-09-03T05:16:22.496Z,22.11
2022-09-03T05:18:53.055Z,22.27
2022-09-03T05:21:20.692Z,22.10
2022-09-03T05:23:50.698Z,21.87
2022-09-03T05:26:31.913Z,21.90
2022-09-03T05:29:01.634Z,22.58
2022-09-03T05:31:31.594Z,22.42
2022-09-03T05:34:01.971Z,21.95
2022-09-03T05:36:31.565Z,22.24
2022-09-03T05:38:59.814Z,22.63
2022-09-03T05:41:28.107Z,22.42
2022-09-03T05:43:59.138Z,22.36
2022-09-03T05:46:32.261Z,22.29
2022-09-03T05:49:02.019Z,22.70
2022-09-03T05:51:29.983Z,22.35
2022-09-03T05:53:57.970Z,21.90
2022-09-03T05:56:27.381Z,22.81
2022-09-03T05:58:57.520Z,22.61
2022-09-03T06:01:28.702Z,22.73
2022-09-03T06:04:03.845Z,22.79
2022-09-03T06:06:32.868Z,23.10
2022-09-03T06:09:02.604Z,22.87
2022-09-03T06:11:32.951Z,22.49
2022-09-03T06:14:01.759Z,22.59
2022-09-03T06:16:32.126Z,22.22
2022-09-03T06:18:59.746Z,22.75
2022-09-03T06:21:27.914Z,23.12
2022-09-03T06:23:58.417Z,23.23
2022-09-03T06:26:28.215Z,23.20
2022-09-03T06:28:56.366Z,22.96
2022-09-03T06:31:24.155Z,22.78
2022-09-03T06:33:51.958Z,23.01
2022-09-03T06:36:19.889Z,22.63
2022-09-03T06:38:47.490Z,22.14
2022-09-03T06:41:26.155Z,23.11
2022-09-03T06:43:55.818Z,23.10
2022-09-03T06:46:24.006Z,23.65
2022-09-03T06:48:51.689Z,22.89
2022-09-03T06:51:24.419Z,23.06
2022-09-03T06:53:54.708Z,23.56
2022-09-03T06:56:27.041Z,23.32
2022-09-03T06:58:58.272Z,23.31
2022-09-03T07:01:28.437Z,22.98
2022-09-03T07:03:57.644Z,23.04
2022-09-03T07:06:27.363Z,23.60
2022-09-03T07:08:54.736Z,23.45
2022-09-03T07:11:24.157Z,23.73
2022-09-03T07:13:52.099Z,23.48
2022-09-03T07:16:24.991Z,24.36
2022-09-03T07:18:52.775Z,24.38
2022-09-03T07:21:22.912Z,24.10
2022-09-03T07:23:51.950Z,24.32
2022-09-03T07:26:21.574Z,24.09
2022-09-03T07:28:49.258Z,24.11
2022-09-03T07:31:19.704Z,24.23
2022-09-03T07:33:47.467Z,23.76
2022-09-03T07:36:16.733Z,23.75
2022-09-03T07:38:45.656Z,23.92
2022-09-03T07:41:21.437Z,24.11
2022-09-03T07:43:57.219Z,23.99
2022-09-03T07:46:27.428Z,24.52
2022-09-03T07:48:56.552Z,23.91
2022-09-03T07:51:28.380Z,23.42
2022-09-03T07:53:57.839Z,23.99
2022-09-03T07:56:27.031Z,23.62
2022-09-03T07:58:57.175Z,23.74
2022-09-03T08:01:26.428Z,23.62
2022-09-03T08:03:54.348Z,24.69
2022-09-03T08:06:24.471Z,24.71
2022-09-03T08:09:04.513Z,23.79
2022-09-03T08:11:36.111Z,23.26
2022-09-03T08:14:08.491Z,23.21
2022-09-03T08:16:38.032Z,23.53
2022-09-03T08:19:05.449Z,24.22
2022-09-03T08:21:32.777Z,24.64
2022-09-03T08:24:05.753Z,24.73
2022-09-03T08:26:37.774Z,23.97
2022-09-03T08:29:06.098Z,24.47
2022-09-03T08:31:34.231Z,24.91
2022-09-03T08:34:06.534Z,24.79
2022-09-03T08:36:38.725Z,25.41
2022-09-03T08:39:11.014Z,25.35
2022-09-03T08:42:02.509Z,25.63
2022-09-03T08:44:36.510Z,25.56
2022-09-03T08:47:06.192Z,25.88
2022-09-03T08:49:51.622Z,25.94
2022-09-03T08:52:22.979Z,26.17
2022-09-03T08:54:52.066Z,25.90
2022-09-03T08:57:20.891Z,25.95
2022-09-03T08:59:55.736Z,25.84
2022-09-03T09:02:31.988Z,26.29
2022-09-03T09:05:25.471Z,24.99
2022-09-03T09:08:42.860Z,24.86
2022-09-03T09:11:25.191Z,25.48
2022-09-03T09:14:30.503Z,26.13
2022-09-03T09:17:15.155Z,25.94
2022-09-03T09:19:52.012Z,26.00
2022-09-03T09:22:29.870Z,24.99
2022-09-03T09:25:02.008Z,24.96
2022-09-03T09:27:29.894Z,25.03
2022-09-03T09:30:01.921Z,24.58
2022-09-03T09:32:29.324Z,25.39
2022-09-03T09:34:56.193Z,25.93
2022-09-03T09:37:23.479Z,26.27
2022-09-03T09:39:59.277Z,26.42
2022-09-03T09:42:27.669Z,26.02
2022-09-03T09:44:54.517Z,25.33
2022-09-03T09:47:27.057Z,25.66
2022-09-03T09:49:59.780Z,26.35
2022-09-03T09:52:30.333Z,26.82
2022-09-03T09:55:20.324Z,26.95
2022-09-03T09:57:47.813Z,27.31
2022-09-03T10:00:17.646Z,27.15
2022-09-03T10:02:54.497Z,27.38
2022-09-03T10:05:33.213Z,27.99
2022-09-03T10:08:02.369Z,26.56
2022-09-03T10:10:33.815Z,26.77
2022-09-03T10:13:22.624Z,27.61
2022-09-03T10:16:00.744Z,27.72
2022-09-03T10:18:45.154Z,27.93
2022-09-03T10:21:12.979Z,27.91
2022-09-03T10:24:07.148Z,28.19
2022-09-03T10:26:36.892Z,28.36
2022-09-03T10:29:07.591Z,28.58
2022-09-03T10:31:36.763Z,28.54
2022-09-03T10:34:23.808Z,28.25
2022-09-03T10:37:27.323Z,28.39
2022-09-03T10:40:20.920Z,28.26
2022-09-03T10:42:47.788Z,28.44
2022-09-03T10:45:35.189Z,28.27
2022-09-03T10:48:27.351Z,28.44
2022-09-03T10:50:59.047Z,28.82
2022-09-03T10:53:36.990Z,28.71
2022-09-03T10:56:14.735Z,28.85
2022-09-03T10:58:59.961Z,28.91
2022-09-03T11:01:54.668Z,28.61
2022-09-03T11:04:41.315Z,29.24
2022-09-03T11:07:13.454Z,28.72
2022-09-03T11:09:59.475Z,28.76
2022-09-03T11:12:31.568Z,29.67
2022-09-03T11:15:26.164Z,28.71
2022-09-03T11:18:16.137Z,28.73
2022-09-03T11:20:44.644Z,29.18
2022-09-03T11:23:15.893Z,29.43
2022-09-03T11:26:07.349Z,29.72
2022-09-03T11:28:42.203Z,29.69
2022-09-03T11:31:31.553Z,29.83
2022-09-03T11:34:32.644Z,29.33
2022-09-03T11:37:15.754Z,29.20
2022-09-03T11:39:43.055Z,29.75
2022-09-03T11:42:12.893Z,29.53
2022-09-03T11:44:50.996Z,30.24
2022-09-03T11:47:37.837Z,30.34
2022-09-03T11:50:17.594Z,30.11
2022-09-03T11:52:44.450Z,29.60
2022-09-03T11:55:11.363Z,30.36
2022-09-03T11:57:43.970Z,30.59
2022-09-03T12:00:16.010Z,29.52
2022-09-03T12:02:59.005Z,29.90
2022-09-03T12:05:48.592Z,29.58
2022-09-03T12:08:57.433Z,30.28
2022-09-03T12:11:39.482Z,30.04
2022-09-03T12:14:34.952Z,30.16
2022-09-03T12:17:12.131Z,29.92
2022-09-03T12:19:44.719Z,30.25
2022-09-03T12:22:15.988Z,30.49
2022-09-03T12:24:44.481Z,29.80
2022-09-03T12:27:24.288Z,30.15
2022-09-03T12:29:56.291Z,30.85
2022-09-03T12:32:23.575Z,30.68
2022-09-03T12:34:51.187Z,29.69
2022-09-03T12:40:29.406Z,30.62
2022-09-03T12:46:13.301Z,30.55
2022-09-03T12:49:29.168Z,30.74
2022-09-03T12:51:53.149Z,31.12
2022-09-03T12:54:22.780Z,31.43
2022-09-03T12:56:58.197Z,31.36
2022-09-03T12:59:28.493Z,30.84
2022-09-03T13:02:00.713Z,31.25
2022-09-03T13:04:35.283Z,29.72
2022-09-03T13:07:11.597Z,30.75
2022-09-03T13:09:41.445Z,31.23
2022-09-03T13:12:21.604Z,31.49
2022-09-03T13:14:52.628Z,32.21
2022-09-03T13:17:54.035Z,31.98
2022-09-03T13:21:00.617Z,32.21
2022-09-03T13:23:35.924Z,31.99
2022-09-03T13:26:11.740Z,32.10
2022-09-03T13:29:01.897Z,31.96
2022-09-03T13:31:38.840Z,32.17
2022-09-03T13:34:14.215Z,31.75
2022-09-03T13:36:54.389Z,32.30
2022-09-03T13:39:35.430Z,30.74
2022-09-03T13:42:42.043Z,31.19
2022-09-03T13:45:09.171Z,31.48
2022-09-03T13:48:28.360Z,32.67
2022-09-03T13:51:18.686Z,33.50
2022-09-03T13:54:04.766Z,33.14
2022-09-03T13:56:38.312Z,33.26
2022-09-03T13:59:19.909Z,33.55
2022-09-03T14:02:02.107Z,33.21
2022-09-03T14:05:03.198Z,33.27
2022-09-03T14:07:54.379Z,32.10
2022-09-03T14:10:31.084Z,31.56
2022-09-03T14:13:10.757Z,31.83
2022-09-03T14:15:50.320Z,32.23
2022-09-03T14:18:36.115Z,32.32
2022-09-03T14:21:08.082Z,32.13
2022-09-03T14:24:10.669Z,32.21
2022-09-03T14:26:39.970Z,32.48
2022-09-03T14:29:13.078Z,32.78
2022-09-03T14:31:58.852Z,33.51
2022-09-03T14:34:38.337Z,33.14
2022-09-03T14:37:27.810Z,32.17
2022-09-03T14:39:59.880Z,32.99
2022-09-03T14:42:47.359Z,33.31
2022-09-03T14:45:45.716Z,33.00
2022-09-03T14:48:43.351Z,33.96
2022-09-03T14:51:55.992Z,34.28
2022-09-03T14:54:59.938Z,33.96
2022-09-03T14:57:54.648Z,33.69
2022-09-03T15:00:31.481Z,33.34
2022-09-03T15:03:19.927Z,32.71
2022-09-03T15:05:52.610Z,32.68
2022-09-03T15:09:07.812Z,32.17
2022-09-03T15:11:47.891Z,31.20
2022-09-03T15:14:53.391Z,32.00
2022-09-03T15:17:35.501Z,32.15
2022-09-03T15:20:20.611Z,32.25
2022-09-03T15:23:11.837Z,32.43
2022-09-03T15:26:06.365Z,32.59
2022-09-03T15:28:57.204Z,32.10
2022-09-03T15:31:48.185Z,32.69
2022-09-03T15:34:40.324Z,32.83
2022-09-03T15:37:30.578Z,32.40
2022-09-03T15:40:08.300Z,32.02
2022-09-03T15:42:36.681Z,31.60
2022-09-03T15:45:08.779Z,31.42
2022-09-03T15:47:51.676Z,30.58
2022-09-03T15:50:33.082Z,30.00
2022-09-03T15:53:25.476Z,29.96
2022-09-03T15:56:33.207Z,30.18
2022-09-03T15:59:07.695Z,30.11
2022-09-03T16:01:51.147Z,30.14
2022-09-03T16:04:34.947Z,29.68
2022-09-03T16:07:07.828Z,29.48
2022-09-03T16:10:22.746Z,28.99
2022-09-03T16:12:59.206Z,28.81
2022-09-03T16:15:43.884Z,28.99
2022-09-03T16:18:30.730Z,28.77
2022-09-03T16:21:15.301Z,28.62
2022-09-03T16:23:53.536Z,28.99
2022-09-03T16:26:32.128Z,28.67
2022-09-03T16:29:08.033Z,28.89
2022-09-03T16:32:01.226Z,28.85
2022-09-03T16:35:02.375Z,29.05
2022-09-03T16:37:55.426Z,28.61
2022-09-03T16:41:04.249Z,28.77
2022-09-03T16:43:45.660Z,28.82
2022-09-03T16:46:26.031Z,28.74
2022-09-03T16:49:14.497Z,28.81
2022-09-03T16:51:57.057Z,28.72
2022-09-03T16:55:06.655Z,28.73
2022-09-03T16:57:36.437Z,28.58
2022-09-03T17:00:14.824Z,28.69
2022-09-03T17:02:48.699Z,28.72
2022-09-03T17:05:35.216Z,28.39
2022-09-03T17:08:11.394Z,28.45
2022-09-03T17:11:29.254Z,28.42
2022-09-03T17:14:07.770Z,28.35
2022-09-03T17:16:57.358Z,28.10
2022-09-03T17:19:51.935Z,28.02
2022-09-03T17:22:51.212Z,28.08
2022-09-03T17:25:50.508Z,27.82
2022-09-03T17:28:45.357Z,27.98
2022-09-03T17:31:36.759Z,28.04
2022-09-03T17:34:09.535Z,27.57
2022-09-03T17:36:53.366Z,27.71
2022-09-03T17:39:38.627Z,27.73
2022-09-03T17:42:20.394Z,27.89
2022-09-03T17:44:59.563Z,27.60
2022-09-03T17:47:41.568Z,27.46
2022-09-03T17:50:08.567Z,27.60
2022-09-03T17:52:35.261Z,27.67
2022-09-03T17:55:51.934Z,27.79
2022-09-03T17:58:33.614Z,27.46
2022-09-03T18:01:18.352Z,27.36
2022-09-03T18:04:10.101Z,26.96
2022-09-03T18:06:46.776Z,26.98
2022-09-03T18:09:16.592Z,26.72
2022-09-03T18:12:13.704Z,26.72
2022-09-03T18:14:55.898Z,26.96
2022-09-03T18:17:39.107Z,26.73
2022-09-03T18:20:28.218Z,26.84
2022-09-03T18:23:52.147Z,26.89
2022-09-03T18:26:47.209Z,26.56
2022-09-03T18:29:38.962Z,26.66
2022-09-03T18:32:24.668Z,26.84
2022-09-03T18:35:10.414Z,26.82
2022-09-03T18:37:57.748Z,26.53
2022-09-03T18:40:49.866Z,26.81
2022-09-03T18:44:09.429Z,26.63
2022-09-03T18:50:43.264Z,26.63
2022-09-03T18:53:35.536Z,26.55
2022-09-03T18:56:27.158Z,26.23
2022-09-03T18:59:44.451Z,26.56
2022-09-03T19:02:47.756Z,26.37
2022-09-03T19:05:43.000Z,26.26
2022-09-03T19:08:44.194Z,26.34
2022-09-03T19:12:16.652Z,26.45
2022-09-03T19:15:01.820Z,26.19
2022-09-03T19:18:19.204Z,26.28
2022-09-03T19:21:35.907Z,26.19
2022-09-03T19:24:21.651Z,26.23
2022-09-03T19:27:51.863Z,26.37
2022-09-03T19:30:35.566Z,26.38
2022-09-03T19:33:42.298Z,26.27
2022-09-03T19:36:40.199Z,26.08
2022-09-03T19:40:10.570Z,26.38
2022-09-03T19:43:36.840Z,26.24
2022-09-03T19:46:22.763Z,26.04
2022-09-03T19:49:35.075Z,26.06
2022-09-03T19:52:29.367Z,25.90
2022-09-03T19:55:16.765Z,26.09
2022-09-03T19:58:20.598Z,26.19
2022-09-03T20:01:12.406Z,25.98
2022-09-03T20:03:58.287Z,25.77
2022-09-03T20:06:43.690Z,25.54
2022-09-03T20:09:32.291Z,25.84
2022-09-03T20:12:07.131Z,25.84
2022-09-03T20:14:37.171Z,25.78
2022-09-03T20:17:22.172Z,25.77
2022-09-03T20:20:14.990Z,25.51
2022-09-03T20:22:52.319Z,25.79
2022-09-03T20:25:56.933Z,25.67
2022-09-03T20:28:23.885Z,25.48
2022-09-03T20:31:00.847Z,25.60
2022-09-03T20:33:36.642Z,25.26
2022-09-03T20:36:26.862Z,25.16
2022-09-03T20:38:54.733Z,25.02
2022-09-03T20:41:49.717Z,24.98
2022-09-03T20:44:25.387Z,25.02
2022-09-03T20:47:04.667Z,24.98
2022-09-03T20:49:38.228Z,25.04
2022-09-03T20:52:12.264Z,24.83
2022-09-03T20:55:13.196Z,24.99
2022-09-03T20:57:50.332Z,24.63
2022-09-03T21:00:19.650Z,24.43
2022-09-03T21:03:19.602Z,24.49
2022-09-03T21:06:02.812Z,24.64
2022-09-03T21:09:00.997Z,24.13
2022-09-03T21:11:35.788Z,24.61
2022-09-03T21:14:38.273Z,24.16
2022-09-03T21:17:24.958Z,24.57
2022-09-03T21:20:03.207Z,24.73
2022-09-03T21:22:54.286Z,24.70
2022-09-03T21:25:31.595Z,24.59
2022-09-03T21:28:28.646Z,24.33
2022-09-03T21:31:02.808Z,24.54
2022-09-03T21:33:35.461Z,24.33
2022-09-03T21:36:17.586Z,24.37
2022-09-03T21:38:49.108Z,24.33
2022-09-03T21:41:31.087Z,24.10
2022-09-03T21:44:20.688Z,24.17
2022-09-03T21:46:54.866Z,24.19
2022-09-03T21:49:29.484Z,23.78
2022-09-03T21:52:14.916Z,23.78
2022-09-03T21:54:41.832Z,24.16
2022-09-03T21:57:27.031Z,23.67
2022-09-03T22:00:19.701Z,24.09
2022-09-03T22:02:49.354Z,23.40
2022-09-03T22:05:18.475Z,23.86
2022-09-03T22:07:58.896Z,23.96
2022-09-03T22:10:34.712Z,24.27
2022-09-03T22:13:32.467Z,23.84
2022-09-03T22:16:14.416Z,23.46
2022-09-03T22:18:41.383Z,23.68
2022-09-03T22:21:23.538Z,23.86
2022-09-03T22:24:07.501Z,24.03
2022-09-03T22:26:49.184Z,24.05
2022-09-03T22:29:19.556Z,23.86
2022-09-03T22:31:58.235Z,23.60
2022-09-03T22:34:25.247Z,23.60
2022-09-03T22:37:00.774Z,23.84
2022-09-03T22:39:36.579Z,23.81
2022-09-03T22:42:18.118Z,23.92
2022-09-03T22:44:57.639Z,23.93
2022-09-03T22:47:30.819Z,23.72
2022-09-03T22:50:42.197Z,23.39
2022-09-03T22:53:27.292Z,23.52
2022-09-03T22:56:00.323Z,23.58
2022-09-03T22:58:33.538Z,23.56
2022-09-03T23:01:28.789Z,23.72
2022-09-03T23:04:03.412Z,23.77
2022-09-03T23:06:39.465Z,23.85
2022-09-03T23:09:10.077Z,23.79
2022-09-03T23:11:45.420Z,23.66
2022-09-03T23:14:28.432Z,23.49
2022-09-03T23:17:00.961Z,23.47
2022-09-03T23:19:40.571Z,23.50
2022-09-03T23:22:13.276Z,23.06
2022-09-03T23:24:44.712Z,23.40
2022-09-03T23:27:18.293Z,23.63
2022-09-03T23:29:50.443Z,23.56
2022-09-03T23:32:17.303Z,23.45
2022-09-03T23:34:44.201Z,23.47
2022-09-03T23:37:35.083Z,23.57
2022-09-03T23:40:29.073Z,23.66
2022-09-03T23:43:09.380Z,23.60
2022-09-03T23:45:36.236Z,23.44
2022-09-03T23:48:32.586Z,23.65
2022-09-03T23:51:22.762Z,23.60
2022-09-03T23:54:06.526Z,23.51
2022-09-03T23:57:04.352Z,23.46
2022-09-03T23:59:37.573Z,23.39
